Time;durP1;ratioP1;P1;durP2;ratioP2;P2;SDS_P1;SDS_P2;PMS_P1;PMS_P2;Temp;Humidity;BMP_temperature;BMP_pressure;BME280_temperature;BME280_humidity;BME280_pressure;Samples;Min_cycle;Max_cycle;Signal;HPM_P1;HPM_P2
2022/10/13 00:01:57;;;;;;;6.82;3.15;;;15.20;67.00;;;;;;2344071;53;20956;-77
2022/10/13 00:04:25;;;;;;;6.07;3.05;;;15.20;67.00;;;;;;2347586;53;21008;-77
2022/10/13 00:06:56;;;;;;;5.43;3.03;;;15.20;66.90;;;;;;2380699;53;20987;-78
2022/10/13 00:09:23;;;;;;;7.45;3.12;;;15.20;67.00;;;;;;2590360;52;20972;-79
2022/10/13 00:11:51;;;;;;;7.57;3.00;;;15.20;67.00;;;;;;2340936;53;20973;-78
2022/10/13 00:14:17;;;;;;;6.47;3.05;;;15.30;67.20;;;;;;2342219;54;20925;-78
2022/10/13 00:16:55;;;;;;;4.68;3.03;;;15.30;67.20;;;;;;2342537;53;20989;-78
2022/10/13 00:19:23;;;;;;;7.05;3.30;;;15.30;67.20;;;;;;2561011;52;20990;-77
2022/10/13 00:21:49;;;;;;;7.75;3.65;;;15.30;67.30;;;;;;2588518;53;21087;-77
2022/10/13 00:24:15;;;;;;;5.85;3.00;;;15.30;67.40;;;;;;2588927;53;20964;-77
2022/10/13 00:26:42;;;;;;;6.03;3.42;;;15.40;67.50;;;;;;2346352;53;20959;-77
2022/10/13 00:29:08;;;;;;;6.35;3.03;;;15.40;67.50;;;;;;2347456;53;21000;-77
2022/10/13 00:31:34;;;;;;;4.90;3.08;;;15.40;67.50;;;;;;2400927;53;21714;-77
2022/10/13 00:34:01;;;;;;;4.43;2.35;;;15.40;67.60;;;;;;2341042;54;20984;-77
2022/10/13 00:36:32;;;;;;;5.47;2.83;;;15.40;67.60;;;;;;2522998;53;20937;-77
2022/10/13 00:38:58;;;;;;;4.97;2.60;;;15.50;67.70;;;;;;2591375;53;21100;-77
2022/10/13 00:41:24;;;;;;;8.98;3.15;;;15.50;67.70;;;;;;2344463;54;21827;-77
2022/10/13 00:43:56;;;;;;;7.28;3.47;;;15.50;67.70;;;;;;2590700;53;21461;-77
2022/10/13 00:46:30;;;;;;;5.37;2.80;;;15.50;67.60;;;;;;2342260;53;20972;-77
2022/10/13 00:49:08;;;;;;;4.53;2.75;;;15.50;67.60;;;;;;2558420;53;20912;-78
2022/10/13 00:51:44;;;;;;;8.05;2.67;;;15.60;67.40;;;;;;2390361;53;20984;-78
2022/10/13 00:54:12;;;;;;;7.12;3.28;;;15.60;67.30;;;;;;2417528;53;20940;-78
2022/10/13 00:56:39;;;;;;;5.25;3.30;;;15.60;67.30;;;;;;2343048;53;21012;-79
2022/10/13 00:59:12;;;;;;;4.22;2.45;;;15.60;67.20;;;;;;2479363;53;20912;-79
2022/10/13 01:01:38;;;;;;;7.30;3.17;;;15.60;67.10;;;;;;2521560;53;20928;-80
2022/10/13 01:04:05;;;;;;;6.43;2.58;;;15.60;67.00;;;;;;2435094;53;21024;-79
2022/10/13 01:06:31;;;;;;;3.80;2.42;;;15.50;66.90;;;;;;2438891;53;21868;-79
2022/10/13 01:08:58;;;;;;;4.97;2.78;;;15.50;66.90;;;;;;2587428;53;20935;-79
2022/10/13 01:12:00;;;;;;;5.75;3.05;;;15.50;66.80;;;;;;2344022;53;20980;-80
2022/10/13 01:14:35;;;;;;;4.95;2.97;;;15.50;66.60;;;;;;2485194;53;20985;-78
2022/10/13 01:17:23;;;;;;;5.25;3.10;;;15.50;66.90;;;;;;2366745;53;20975;-77
2022/10/13 01:24:01;;;;;;;6.55;2.90;;;15.50;66.60;;;;;;2342805;53;20933;-77
2022/10/13 01:26:51;;;;;;;5.93;1.92;;;15.50;66.30;;;;;;2345067;53;20996;-77
2022/10/13 01:29:35;;;;;;;5.87;2.15;;;15.40;66.30;;;;;;2590025;52;20947;-78
2022/10/13 01:35:43;;;;;;;4.68;2.40;;;15.40;66.50;;;;;;2446435;52;20952;-77
2022/10/13 01:39:08;;;;;;;4.62;1.95;;;15.40;66.50;;;;;;2344667;53;20948;-77
2022/10/13 01:41:38;;;;;;;3.65;2.12;;;15.30;66.40;;;;;;2380762;53;20908;-77
2022/10/13 01:47:37;;;;;;;3.90;2.20;;;15.30;66.60;;;;;;2591514;53;20944;-77
2022/10/13 01:50:04;;;;;;;6.68;2.15;;;15.20;66.60;;;;;;2345143;53;20992;-78
2022/10/13 01:52:35;;;;;;;4.37;2.08;;;15.20;66.50;;;;;;2429952;53;21008;-77
2022/10/13 01:55:09;;;;;;;4.37;2.10;;;15.10;66.50;;;;;;2590137;53;21032;-77
2022/10/13 01:57:38;;;;;;;5.03;2.37;;;15.10;66.40;;;;;;2477603;53;21125;-77
2022/10/13 02:00:15;;;;;;;6.40;3.15;;;15.10;66.60;;;;;;2588639;53;21592;-78
2022/10/13 02:02:48;;;;;;;7.12;2.83;;;15.10;66.60;;;;;;2387406;53;20922;-79
2022/10/13 02:05:47;;;;;;;5.75;2.60;;;15.10;66.80;;;;;;2379063;53;21029;-79
2022/10/13 02:08:43;;;;;;;4.75;2.37;;;15.00;66.60;;;;;;2542639;52;21024;-75
2022/10/13 02:11:48;;;;;;;4.78;2.33;;;15.00;66.70;;;;;;2360852;53;21065;-77
2022/10/13 02:14:26;;;;;;;5.30;2.20;;;15.00;66.50;;;;;;2389446;53;21028;-77
2022/10/13 02:16:55;;;;;;;5.35;2.10;;;15.00;66.70;;;;;;2372257;53;20956;-77
2022/10/13 02:19:22;;;;;;;5.18;2.37;;;14.90;66.70;;;;;;2530167;53;21504;-77
2022/10/13 02:21:52;;;;;;;5.18;2.55;;;14.90;66.80;;;;;;2345850;53;20978;-77
2022/10/13 02:24:21;;;;;;;6.70;2.60;;;14.90;66.90;;;;;;2343918;53;21011;-77
2022/10/13 02:26:47;;;;;;;5.03;2.70;;;14.90;67.00;;;;;;2440635;53;20984;-76
2022/10/13 02:29:14;;;;;;;4.37;2.33;;;14.90;67.10;;;;;;2454808;52;21413;-77
2022/10/13 02:31:41;;;;;;;4.22;2.47;;;14.90;67.10;;;;;;2499431;53;20931;-77
2022/10/13 02:34:09;;;;;;;7.18;3.00;;;14.90;67.00;;;;;;2339643;54;21458;-78
2022/10/13 02:36:37;;;;;;;6.00;3.10;;;14.90;67.00;;;;;;2519768;53;20984;-77
2022/10/13 02:39:05;;;;;;;7.57;2.75;;;14.90;67.00;;;;;;2465535;53;21003;-77
2022/10/13 02:41:31;;;;;;;4.55;2.30;;;14.90;67.00;;;;;;2343842;53;20984;-77
2022/10/13 02:43:58;;;;;;;5.20;3.00;;;14.90;66.90;;;;;;2370784;53;20944;-78
2022/10/13 02:46:24;;;;;;;7.37;3.22;;;14.90;66.90;;;;;;2347502;53;21027;-76
2022/10/13 02:48:50;;;;;;;4.62;2.80;;;14.90;67.00;;;;;;2396406;52;20924;-78
2022/10/13 02:51:17;;;;;;;5.70;3.40;;;14.90;67.00;;;;;;2493430;52;20959;-77
2022/10/13 02:53:43;;;;;;;5.25;2.95;;;14.90;67.00;;;;;;2344022;53;21425;-77
2022/10/13 02:56:09;;;;;;;3.92;2.50;;;14.90;67.00;;;;;;2345095;53;21076;-77
2022/10/13 02:58:35;;;;;;;6.85;2.62;;;14.90;66.90;;;;;;2341902;53;21015;-77
2022/10/13 03:01:07;;;;;;;6.45;2.83;;;14.90;66.80;;;;;;2344346;53;20979;-77
2022/10/13 03:03:33;;;;;;;7.35;2.83;;;14.90;66.80;;;;;;2528829;53;21016;-77
2022/10/13 03:06:00;;;;;;;7.18;2.85;;;14.90;66.80;;;;;;2342767;53;22264;-77
2022/10/13 03:08:26;;;;;;;4.75;2.62;;;14.80;66.60;;;;;;2445117;53;21039;-77
2022/10/13 03:10:53;;;;;;;5.43;2.58;;;14.80;66.60;;;;;;2344352;54;20997;-77
2022/10/13 03:13:23;;;;;;;6.45;2.65;;;14.80;66.50;;;;;;2345276;53;21050;-77
2022/10/13 03:15:49;;;;;;;7.90;3.00;;;14.80;66.60;;;;;;2343953;53;20996;-76
2022/10/13 03:18:16;;;;;;;5.18;3.17;;;14.80;66.60;;;;;;2343355;54;21954;-77
2022/10/13 03:20:53;;;;;;;4.62;2.87;;;14.70;66.50;;;;;;2343449;53;20940;-77
2022/10/13 03:23:21;;;;;;;6.72;3.08;;;14.70;66.40;;;;;;2343379;54;21008;-77
2022/10/13 03:25:47;;;;;;;5.12;2.72;;;14.70;66.50;;;;;;2343518;54;21003;-77
2022/10/13 03:28:16;;;;;;;4.72;2.47;;;14.70;66.50;;;;;;2589878;53;22072;-76
2022/10/13 03:30:43;;;;;;;3.90;2.17;;;14.70;66.50;;;;;;2346826;53;20959;-77
2022/10/13 03:33:10;;;;;;;3.67;2.35;;;14.60;66.40;;;;;;2418262;52;20964;-76
2022/10/13 03:35:36;;;;;;;5.78;3.20;;;14.60;66.40;;;;;;2421680;53;21028;-77
2022/10/13 03:38:06;;;;;;;4.25;2.62;;;14.60;66.40;;;;;;2343541;53;20984;-77
2022/10/13 03:41:10;;;;;;;5.57;2.70;;;14.60;66.50;;;;;;2345777;53;20924;-77
2022/10/13 03:43:36;;;;;;;11.88;2.92;;;14.60;66.20;;;;;;2407239;53;21015;-76
2022/10/13 03:46:03;;;;;;;6.97;3.30;;;14.50;66.30;;;;;;2491148;53;20905;-77
2022/10/13 03:48:30;;;;;;;4.07;2.40;;;14.50;66.30;;;;;;2498975;53;21040;-77
2022/10/13 03:50:56;;;;;;;5.82;2.60;;;14.50;66.30;;;;;;2462196;53;21460;-76
2022/10/13 03:53:23;;;;;;;5.45;3.08;;;14.40;66.20;;;;;;2343328;53;20976;-77
2022/10/13 03:55:53;;;;;;;6.50;3.58;;;14.40;66.20;;;;;;2344074;53;20916;-77
2022/10/13 03:58:20;;;;;;;8.73;3.70;;;14.40;66.20;;;;;;2344344;54;21002;-77
2022/10/13 04:00:46;;;;;;;5.50;3.53;;;14.40;66.30;;;;;;2424617;53;20991;-77
2022/10/13 04:03:14;;;;;;;5.80;3.08;;;14.30;66.20;;;;;;2461147;52;20956;-77
2022/10/13 04:05:43;;;;;;;6.03;3.25;;;14.30;66.20;;;;;;2447691;53;21457;-77
2022/10/13 04:08:09;;;;;;;7.20;2.87;;;14.30;66.30;;;;;;2344401;53;21024;-77
2022/10/13 04:10:36;;;;;;;5.37;3.17;;;14.20;66.30;;;;;;2358622;53;21012;-76
2022/10/13 04:13:02;;;;;;;6.45;3.50;;;14.20;66.30;;;;;;2589971;53;20984;-77
2022/10/13 04:15:29;;;;;;;6.40;3.20;;;14.20;66.30;;;;;;2573774;53;20976;-77
2022/10/13 04:17:56;;;;;;;5.97;3.20;;;14.20;66.40;;;;;;2358958;53;20991;-77
2022/10/13 04:20:23;;;;;;;5.93;3.33;;;14.20;66.30;;;;;;2458192;53;21031;-77
2022/10/13 04:22:52;;;;;;;8.45;3.10;;;14.20;66.50;;;;;;2442580;53;20972;-77
2022/10/13 04:25:18;;;;;;;5.25;3.20;;;14.20;66.50;;;;;;2343455;54;21028;-77
2022/10/13 04:27:47;;;;;;;4.85;3.10;;;14.10;66.50;;;;;;2343966;53;21000;-77
2022/10/13 04:30:13;;;;;;;6.75;2.75;;;14.20;66.60;;;;;;2590556;53;20920;-76
2022/10/13 04:32:39;;;;;;;6.68;3.47;;;14.20;66.60;;;;;;2343032;54;21473;-77
2022/10/13 04:35:06;;;;;;;7.00;4.12;;;14.10;66.60;;;;;;2324448;54;20943;-76
2022/10/13 04:37:32;;;;;;;5.82;3.22;;;14.10;66.70;;;;;;2343307;53;21048;-76
2022/10/13 04:39:58;;;;;;;6.12;3.40;;;14.10;66.80;;;;;;2342854;53;21355;-76
2022/10/13 04:42:25;;;;;;;6.18;2.97;;;14.10;66.80;;;;;;2589316;53;20972;-77
2022/10/13 04:44:52;;;;;;;6.75;3.67;;;14.10;66.70;;;;;;2343533;53;20984;-77
2022/10/13 04:47:19;;;;;;;5.15;3.20;;;14.10;66.70;;;;;;2344085;53;21413;-77
2022/10/13 04:49:45;;;;;;;5.37;3.17;;;14.10;66.70;;;;;;2343994;54;20980;-76
2022/10/13 04:52:12;;;;;;;6.82;3.35;;;14.10;66.80;;;;;;2344222;53;21497;-77
2022/10/13 04:54:38;;;;;;;5.70;3.12;;;14.10;66.80;;;;;;2343439;53;21016;-77
2022/10/13 04:57:06;;;;;;;5.37;3.25;;;14.10;66.80;;;;;;2451066;53;20992;-77
2022/10/13 04:59:34;;;;;;;4.90;3.05;;;14.10;66.90;;;;;;2343788;54;21036;-77
2022/10/13 05:02:03;;;;;;;7.37;3.05;;;14.10;67.00;;;;;;2361848;53;21812;-77
2022/10/13 05:04:31;;;;;;;6.90;3.28;;;14.10;67.00;;;;;;2460816;53;21036;-77
2022/10/13 05:06:57;;;;;;;7.72;3.50;;;14.10;67.10;;;;;;2493329;53;21389;-76
2022/10/13 05:09:42;;;;;;;6.20;3.00;;;14.10;67.20;;;;;;2416820;53;20956;-77
2022/10/13 05:12:10;;;;;;;4.78;2.80;;;14.10;67.40;;;;;;2343968;54;21708;-76
2022/10/13 05:14:39;;;;;;;7.75;3.72;;;14.10;67.40;;;;;;2340009;53;21001;-76
2022/10/13 05:17:06;;;;;;;6.43;3.92;;;14.10;67.20;;;;;;2343229;53;20912;-76
2022/10/13 05:19:34;;;;;;;6.18;3.37;;;14.10;67.30;;;;;;2346757;53;21002;-77
2022/10/13 05:22:00;;;;;;;8.75;4.03;;;14.10;67.40;;;;;;2486919;52;20920;-76
2022/10/13 05:24:37;;;;;;;9.23;4.97;;;14.10;67.40;;;;;;2399270;53;21007;-76
2022/10/13 05:27:08;;;;;;;5.72;3.72;;;14.10;67.50;;;;;;2343426;53;21035;-76
2022/10/13 05:29:37;;;;;;;6.28;4.00;;;14.20;67.70;;;;;;2434336;53;20956;-76
2022/10/13 05:32:07;;;;;;;6.32;3.80;;;14.20;67.70;;;;;;2344458;53;21030;-76
2022/10/13 05:34:33;;;;;;;6.20;3.55;;;14.20;67.70;;;;;;2354653;53;20948;-76
2022/10/13 05:37:03;;;;;;;8.73;3.95;;;14.20;67.70;;;;;;2346162;53;20986;-77
2022/10/13 05:39:30;;;;;;;7.60;4.40;;;14.30;67.70;;;;;;2344252;53;20960;-76
2022/10/13 05:41:56;;;;;;;7.30;4.10;;;14.30;67.70;;;;;;2590416;53;21838;-76
2022/10/13 05:44:24;;;;;;;6.10;3.92;;;14.30;67.80;;;;;;2345195;53;20937;-76
2022/10/13 05:46:51;;;;;;;6.32;3.87;;;14.30;67.80;;;;;;2347553;53;20915;-76
2022/10/13 05:49:17;;;;;;;9.88;5.80;;;14.30;67.80;;;;;;2493388;52;21477;-76
2022/10/13 05:51:46;;;;;;;6.57;4.70;;;14.30;67.80;;;;;;2501498;53;21039;-77
2022/10/13 05:55:38;;;;;;;5.07;3.30;;;14.30;67.90;;;;;;2383897;53;21032;-76
2022/10/13 05:58:04;;;;;;;6.03;3.50;;;14.40;68.00;;;;;;2340786;53;21039;-76
2022/10/13 06:00:30;;;;;;;8.00;4.45;;;14.40;67.90;;;;;;2339267;53;20935;-76
2022/10/13 06:03:08;;;;;;;7.95;5.03;;;14.40;67.90;;;;;;2346594;53;20900;-76
2022/10/13 06:05:36;;;;;;;9.18;5.12;;;14.40;68.00;;;;;;2362516;53;21012;-76
2022/10/13 06:08:02;;;;;;;6.05;4.25;;;14.50;68.10;;;;;;2342150;53;21076;-76
2022/10/13 06:10:28;;;;;;;7.65;4.75;;;14.50;68.10;;;;;;2379205;53;20952;-76
2022/10/13 06:12:55;;;;;;;7.97;4.53;;;14.50;68.10;;;;;;2550239;52;21021;-76
2022/10/13 06:15:21;;;;;;;5.65;3.62;;;14.50;68.10;;;;;;2353790;53;20973;-76
2022/10/13 06:17:50;;;;;;;6.87;4.20;;;14.50;68.10;;;;;;2348270;53;20919;-76
2022/10/13 06:20:16;;;;;;;8.30;4.62;;;14.60;68.20;;;;;;2367497;52;21074;-76
2022/10/13 06:22:43;;;;;;;7.22;4.30;;;14.60;68.20;;;;;;2343963;54;20957;-76
2022/10/13 06:25:09;;;;;;;6.90;4.62;;;14.60;68.20;;;;;;2485562;53;21043;-76
2022/10/13 06:27:36;;;;;;;7.10;3.92;;;14.60;68.20;;;;;;2342847;53;20964;-76
2022/10/13 06:30:04;;;;;;;7.30;4.35;;;14.70;68.30;;;;;;2345488;53;21024;-76
2022/10/13 06:32:31;;;;;;;6.10;4.30;;;14.70;68.30;;;;;;2454568;53;21025;-76
2022/10/13 06:34:57;;;;;;;7.15;4.57;;;14.70;68.40;;;;;;2342535;53;20932;-77
2022/10/13 06:37:23;;;;;;;5.70;3.78;;;14.70;68.40;;;;;;2375877;52;20972;-77
2022/10/13 06:39:52;;;;;;;7.68;4.65;;;14.70;68.40;;;;;;2337903;53;20967;-77
2022/10/13 06:42:19;;;;;;;7.43;4.40;;;14.80;68.50;;;;;;2342764;53;21034;-77
2022/10/13 06:44:46;;;;;;;8.18;5.05;;;14.80;68.60;;;;;;2346640;53;20919;-77
2022/10/13 06:47:13;;;;;;;8.98;5.68;;;14.80;68.60;;;;;;2373328;53;21545;-77
2022/10/13 06:49:39;;;;;;;10.35;5.97;;;14.90;68.70;;;;;;2344970;53;21856;-76
2022/10/13 06:52:06;;;;;;;9.30;5.50;;;14.90;68.80;;;;;;2450564;52;21012;-77
2022/10/13 06:54:35;;;;;;;8.80;5.47;;;14.90;68.80;;;;;;2342994;53;20940;-77
2022/10/13 06:57:05;;;;;;;9.82;5.25;;;15.00;68.90;;;;;;2343522;53;20980;-77
2022/10/13 06:59:31;;;;;;;6.93;4.70;;;15.00;68.90;;;;;;2344389;54;20960;-77
2022/10/13 07:01:57;;;;;;;7.43;4.82;;;15.10;69.10;;;;;;2590941;53;20952;-77
2022/10/13 07:04:24;;;;;;;7.72;4.90;;;15.10;69.10;;;;;;2340748;53;21417;-78
2022/10/13 07:06:51;;;;;;;8.40;4.72;;;15.20;69.20;;;;;;2344583;53;21692;-77
2022/10/13 07:09:19;;;;;;;8.77;5.30;;;15.20;69.20;;;;;;2343453;54;20920;-77
2022/10/13 07:11:46;;;;;;;6.80;4.70;;;15.20;69.20;;;;;;2589846;53;21320;-78
2022/10/13 07:14:12;;;;;;;8.75;5.45;;;15.30;69.40;;;;;;2397128;53;20911;-77
2022/10/13 07:16:39;;;;;;;8.18;5.35;;;15.30;70.00;;;;;;2343099;53;20937;-78
2022/10/13 07:19:05;;;;;;;9.15;4.32;;;15.30;69.30;;;;;;2359574;53;20921;-78
2022/10/13 07:21:31;;;;;;;10.15;5.32;;;15.40;69.30;;;;;;2590674;53;21002;-78
2022/10/13 07:23:58;;;;;;;9.75;6.57;;;15.40;69.30;;;;;;2464347;53;21874;-79
2022/10/13 07:26:24;;;;;;;10.88;6.15;;;15.40;69.40;;;;;;2521865;53;20984;-79
2022/10/13 07:28:51;;;;;;;12.05;7.43;;;15.50;69.50;;;;;;2424678;53;20996;-79
2022/10/13 07:31:18;;;;;;;10.80;6.93;;;15.50;69.60;;;;;;2590452;52;21235;-79
2022/10/13 07:33:46;;;;;;;9.32;6.47;;;15.60;69.70;;;;;;2438894;52;20941;-79
2022/10/13 07:36:12;;;;;;;10.15;6.05;;;15.60;69.80;;;;;;2439483;53;20956;-76
2022/10/13 07:38:38;;;;;;;10.80;6.82;;;15.70;69.90;;;;;;2343377;53;20944;-76
2022/10/13 07:41:11;;;;;;;11.18;6.53;;;15.80;70.10;;;;;;2345327;53;21019;-77
2022/10/13 07:43:37;;;;;;;11.57;6.90;;;15.80;70.00;;;;;;2356741;52;20992;-78
2022/10/13 07:46:06;;;;;;;10.43;6.72;;;15.90;70.10;;;;;;2344197;53;20952;-77
2022/10/13 07:48:34;;;;;;;12.75;6.78;;;15.90;70.10;;;;;;2344189;53;20900;-77
2022/10/13 07:51:05;;;;;;;9.90;5.80;;;16.00;70.30;;;;;;2572270;53;20996;-77
2022/10/13 07:53:31;;;;;;;10.00;5.75;;;16.00;70.30;;;;;;2572834;53;20936;-77
2022/10/13 07:56:01;;;;;;;9.27;5.37;;;16.10;70.50;;;;;;2589611;53;21003;-78
2022/10/13 07:58:31;;;;;;;8.65;5.65;;;16.20;70.50;;;;;;2365044;53;20968;-77
2022/10/13 08:00:58;;;;;;;9.23;5.90;;;16.20;70.50;;;;;;2347457;53;20994;-76
2022/10/13 08:03:25;;;;;;;8.10;5.62;;;16.30;70.60;;;;;;2343160;53;21080;-78
2022/10/13 08:05:52;;;;;;;9.38;5.18;;;16.40;70.70;;;;;;2446995;53;21481;-77
2022/10/13 08:08:19;;;;;;;8.15;5.20;;;16.50;70.80;;;;;;2343560;54;21000;-77
2022/10/13 08:10:46;;;;;;;8.50;5.65;;;16.50;70.70;;;;;;2344307;53;21015;-77
2022/10/13 08:13:14;;;;;;;8.18;4.72;;;16.60;70.80;;;;;;2399799;53;20940;-78
2022/10/13 08:15:41;;;;;;;9.68;6.07;;;16.60;70.70;;;;;;2343786;53;20989;-77
2022/10/13 08:18:08;;;;;;;8.68;6.20;;;16.70;70.80;;;;;;2451415;53;20948;-77
2022/10/13 08:20:38;;;;;;;8.60;6.00;;;16.80;70.90;;;;;;2342987;54;20912;-77
2022/10/13 08:23:06;;;;;;;8.73;5.68;;;16.80;70.80;;;;;;2368937;53;21016;-77
2022/10/13 08:25:39;;;;;;;10.93;7.35;;;16.90;70.90;;;;;;2344472;54;21550;-78
2022/10/13 08:28:10;;;;;;;9.38;6.12;;;17.00;71.00;;;;;;2343744;54;20935;-77
2022/10/13 08:30:37;;;;;;;9.02;5.75;;;17.00;70.90;;;;;;2343668;53;21832;-78
2022/10/13 08:33:04;;;;;;;9.60;6.07;;;17.10;71.00;;;;;;2434944;53;20941;-78
2022/10/13 08:35:30;;;;;;;9.68;5.68;;;17.20;71.00;;;;;;2343475;53;20955;-77
2022/10/13 08:37:58;;;;;;;8.95;5.70;;;17.20;70.90;;;;;;2344257;54;20940;-77
2022/10/13 08:40:24;;;;;;;10.73;5.80;;;17.30;71.00;;;;;;2393299;53;21024;-76
2022/10/13 08:42:56;;;;;;;12.10;6.03;;;17.40;71.00;;;;;;2397100;53;21028;-78
2022/10/13 08:45:28;;;;;;;8.07;4.87;;;17.40;70.90;;;;;;2376879;53;21065;-77
2022/10/13 08:48:17;;;;;;;8.35;5.00;;;17.50;71.00;;;;;;2410720;53;21583;-79
2022/10/13 08:50:44;;;;;;;7.32;4.72;;;17.60;71.00;;;;;;2421957;53;21071;-78
2022/10/13 08:53:53;;;;;;;5.72;3.90;;;17.70;71.20;;;;;;2355430;53;20962;-79
2022/10/13 08:56:23;;;;;;;7.65;4.68;;;17.80;71.10;;;;;;2344707;53;21765;-77
2022/10/13 08:58:50;;;;;;;8.40;5.05;;;17.80;71.20;;;;;;2514327;52;20952;-77
2022/10/13 09:01:23;;;;;;;7.32;4.47;;;17.90;71.20;;;;;;2343161;53;20940;-77
2022/10/13 09:04:31;;;;;;;7.65;4.82;;;18.00;71.20;;;;;;2540371;53;20984;-77
2022/10/13 09:07:13;;;;;;;6.62;4.05;;;18.00;71.20;;;;;;2451681;53;20928;-79
2022/10/13 09:09:39;;;;;;;7.40;4.50;;;18.10;71.00;;;;;;2344258;53;20928;-77
2022/10/13 09:12:05;;;;;;;7.25;4.80;;;18.20;71.20;;;;;;2344368;54;20932;-77
2022/10/13 09:14:35;;;;;;;7.93;4.85;;;18.30;71.20;;;;;;2352293;53;21028;-77
2022/10/13 09:17:31;;;;;;;7.05;4.65;;;18.30;71.10;;;;;;2344520;53;21004;-77
2022/10/13 09:20:05;;;;;;;7.18;3.83;;;18.50;71.00;;;;;;2348227;54;20911;-76
2022/10/13 09:22:36;;;;;;;7.75;5.18;;;18.50;71.00;;;;;;2386409;52;20901;-77
2022/10/13 09:25:21;;;;;;;7.80;4.45;;;18.60;70.90;;;;;;2539598;53;21715;-79
2022/10/13 09:27:58;;;;;;;6.82;4.37;;;18.60;70.50;;;;;;2375167;53;20928;-78
2022/10/13 09:30:35;;;;;;;9.07;4.87;;;18.70;70.60;;;;;;2343693;53;20908;-77
2022/10/13 09:33:35;;;;;;;8.05;5.55;;;18.80;70.50;;;;;;2525106;53;21008;-79
2022/10/13 09:36:11;;;;;;;10.23;5.37;;;18.80;70.20;;;;;;2344087;54;20969;-77
2022/10/13 09:38:38;;;;;;;8.70;4.70;;;18.80;70.30;;;;;;2344331;53;20964;-78
2022/10/13 09:41:15;;;;;;;8.00;5.25;;;18.90;70.50;;;;;;2343415;53;20975;-77
2022/10/13 09:44:08;;;;;;;9.32;5.35;;;18.90;70.10;;;;;;2344565;54;20984;-78
2022/10/13 09:46:56;;;;;;;9.40;5.57;;;19.00;70.00;;;;;;2393584;53;21024;-79
2022/10/13 09:49:34;;;;;;;6.55;4.62;;;19.00;69.90;;;;;;2374712;53;20970;-77
2022/10/13 09:52:25;;;;;;;7.95;4.57;;;19.10;70.10;;;;;;2343991;53;20944;-78
2022/10/13 09:54:52;;;;;;;9.57;5.57;;;19.10;70.30;;;;;;2347407;53;21031;-77
2022/10/13 09:58:05;;;;;;;11.88;6.97;;;19.10;70.20;;;;;;2344188;54;20940;-78
2022/10/13 10:00:31;;;;;;;13.73;7.63;;;19.20;70.50;;;;;;2343444;54;20932;-77
2022/10/13 10:03:20;;;;;;;8.85;6.15;;;19.20;70.20;;;;;;2347886;53;20942;-77
2022/10/13 10:05:57;;;;;;;9.93;6.53;;;19.20;69.80;;;;;;2368666;54;21047;-77
2022/10/13 10:08:46;;;;;;;10.90;6.37;;;19.30;70.00;;;;;;2343517;54;21948;-77
2022/10/13 10:11:32;;;;;;;9.52;5.68;;;19.30;70.00;;;;;;2426468;53;20951;-78
2022/10/13 10:14:48;;;;;;;8.85;5.65;;;19.30;70.00;;;;;;2372299;52;20984;-78
2022/10/13 10:17:34;;;;;;;7.72;4.47;;;19.40;70.00;;;;;;2327419;54;20948;-77
2022/10/13 10:20:41;;;;;;;8.48;4.82;;;19.50;69.80;;;;;;2343849;53;20999;-78
2022/10/13 10:23:19;;;;;;;7.82;4.95;;;19.50;69.60;;;;;;2343107;53;21496;-77
2022/10/13 10:25:56;;;;;;;7.53;4.87;;;19.50;69.50;;;;;;2455330;53;21415;-78
2022/10/13 10:28:56;;;;;;;7.50;5.15;;;19.60;69.50;;;;;;2344757;54;21103;-77
2022/10/13 10:34:22;;;;;;;9.80;5.00;;;19.60;69.50;;;;;;2590575;53;20937;-77
2022/10/13 10:37:15;;;;;;;7.93;4.00;;;19.70;69.20;;;;;;2355160;53;20947;-77
2022/10/13 10:41:38;;;;;;;8.27;3.83;;;19.80;69.80;;;;;;2510789;53;20936;-78
2022/10/13 10:44:47;;;;;;;6.32;4.05;;;19.80;69.30;;;;;;2590786;53;20968;-77
2022/10/13 10:47:28;;;;;;;6.87;4.30;;;19.90;69.20;;;;;;2406556;53;20972;-77
2022/10/13 10:50:00;;;;;;;7.53;4.57;;;19.90;69.50;;;;;;2339497;54;20991;-77
2022/10/13 10:52:32;;;;;;;6.68;4.10;;;20.00;69.60;;;;;;2373449;53;21430;-78
2022/10/13 10:56:03;;;;;;;6.37;4.17;;;20.00;69.70;;;;;;2390849;52;21938;-77
2022/10/13 11:00:14;;;;;;;6.30;3.28;;;20.10;69.20;;;;;;2344402;53;20996;-77
2022/10/13 11:07:55;;;;;;;5.65;2.87;;;20.10;69.20;;;;;;2343644;53;21001;-78
2022/10/13 11:10:22;;;;;;;4.40;2.35;;;20.30;69.00;;;;;;2347200;53;21424;-77
2022/10/13 11:13:16;;;;;;;6.35;2.95;;;20.40;69.60;;;;;;2346876;54;20948;-77
2022/10/13 11:15:43;;;;;;;4.57;2.60;;;20.40;68.50;;;;;;2347364;53;20944;-77
2022/10/13 11:19:30;;;;;;;5.82;2.83;;;20.40;69.20;;;;;;2434363;53;20975;-77
2022/10/13 11:22:19;;;;;;;6.00;2.72;;;20.50;68.40;;;;;;2589780;53;21064;-77
2022/10/13 11:24:53;;;;;;;5.00;3.05;;;20.60;68.30;;;;;;2343825;54;21045;-77
2022/10/13 11:27:38;;;;;;;8.40;3.40;;;20.60;68.70;;;;;;2344282;54;20952;-78
2022/10/13 11:30:35;;;;;;;7.00;3.00;;;20.70;68.20;;;;;;2344521;53;20960;-77
2022/10/13 11:33:08;;;;;;;4.62;2.42;;;20.70;68.80;;;;;;2519760;53;21086;-78
2022/10/13 11:35:34;;;;;;;6.57;2.70;;;20.80;68.80;;;;;;2417164;52;21503;-77
2022/10/13 11:38:15;;;;;;;4.07;2.50;;;20.80;68.60;;;;;;2347029;53;20955;-77
2022/10/13 11:42:48;;;;;;;6.10;2.70;;;20.80;68.00;;;;;;2344268;54;21007;-77
2022/10/13 11:45:25;;;;;;;5.10;2.60;;;20.90;67.40;;;;;;2343844;53;21011;-78
2022/10/13 11:51:22;;;;;;;6.20;2.62;;;21.00;68.20;;;;;;2343511;54;21279;-77
2022/10/13 11:54:08;;;;;;;4.37;2.40;;;21.00;67.20;;;;;;2387844;53;20927;-77
2022/10/13 11:56:51;;;;;;;4.95;2.60;;;21.10;67.90;;;;;;2412429;52;21015;-77
2022/10/13 11:59:20;;;;;;;;;;;21.10;67.00;;;;;;2347023;53;21428;-78
2022/10/13 12:01:46;;;;;;;4.70;2.25;;;21.10;66.70;;;;;;2491912;52;20075;-77
2022/10/13 12:04:13;;;;;;;5.18;2.80;;;21.10;67.80;;;;;;2344441;52;20960;-78
2022/10/13 12:06:40;;;;;;;6.45;3.05;;;21.10;67.70;;;;;;2347006;53;20982;-77
2022/10/13 12:09:17;;;;;;;6.70;2.90;;;21.10;67.70;;;;;;2343674;53;20968;-77
2022/10/13 12:11:44;;;;;;;6.07;2.58;;;21.20;67.10;;;;;;2343197;54;20981;-77
2022/10/13 12:14:53;;;;;;;5.87;3.33;;;21.20;67.80;;;;;;2343379;53;20999;-78
2022/10/13 12:17:37;;;;;;;7.82;3.10;;;21.20;66.80;;;;;;2344565;53;20933;-78
2022/10/13 12:20:19;;;;;;;5.50;3.40;;;21.30;67.30;;;;;;2417672;53;20987;-77
2022/10/13 12:22:50;;;;;;;6.70;3.33;;;21.30;67.00;;;;;;2347845;53;20979;-78
2022/10/13 12:25:17;;;;;;;6.93;3.60;;;21.30;67.40;;;;;;2344048;53;21023;-77
2022/10/13 12:27:48;;;;;;;6.43;3.70;;;21.30;67.40;;;;;;2344419;53;21015;-77
2022/10/13 12:30:35;;;;;;;7.25;3.37;;;21.30;67.20;;;;;;2347951;53;20927;-77
2022/10/13 12:33:03;;;;;;;5.85;3.55;;;21.30;66.90;;;;;;2344330;53;21000;-77
2022/10/13 12:35:31;;;;;;;7.22;3.30;;;21.40;67.50;;;;;;2388078;53;20964;-77
2022/10/13 12:38:02;;;;;;;6.28;3.40;;;21.30;67.40;;;;;;2435363;53;21016;-78
2022/10/13 12:40:28;;;;;;;6.57;3.53;;;21.40;67.30;;;;;;2347614;53;21012;-77
2022/10/13 12:42:57;;;;;;;6.00;3.55;;;21.40;67.50;;;;;;2343455;53;21393;-77
2022/10/13 12:45:26;;;;;;;5.93;3.67;;;21.40;67.40;;;;;;2345874;54;20924;-78
2022/10/13 12:47:53;;;;;;;6.80;3.92;;;21.50;67.30;;;;;;2344135;54;20984;-77
2022/10/13 12:50:38;;;;;;;7.47;4.12;;;21.50;67.40;;;;;;2343057;54;21064;-77
2022/10/13 12:53:18;;;;;;;4.70;3.08;;;21.50;66.50;;;;;;2344081;53;21018;-77
2022/10/13 12:56:02;;;;;;;7.30;3.95;;;21.60;66.80;;;;;;2339293;53;20937;-77
2022/10/13 12:58:30;;;;;;;6.43;3.58;;;21.60;66.90;;;;;;2408134;53;20972;-77
2022/10/13 13:01:36;;;;;;;6.82;3.45;;;21.60;67.20;;;;;;2345611;53;21008;-77
2022/10/13 13:04:44;;;;;;;6.65;2.78;;;21.70;66.80;;;;;;2589112;52;20993;-78
2022/10/13 13:07:51;;;;;;;7.87;3.30;;;21.70;66.80;;;;;;2346134;54;21416;-77
2022/10/13 13:10:18;;;;;;;6.10;3.10;;;21.80;66.50;;;;;;2342014;54;21423;-77
2022/10/13 13:12:45;;;;;;;8.25;3.40;;;21.80;67.40;;;;;;2343660;54;20948;-78
2022/10/13 13:15:31;;;;;;;6.35;3.28;;;21.80;67.30;;;;;;2344422;53;20989;-77
2022/10/13 13:18:30;;;;;;;5.22;2.72;;;21.80;66.30;;;;;;2343791;54;21027;-77
2022/10/13 13:20:56;;;;;;;6.60;3.30;;;21.90;66.60;;;;;;2437822;53;20960;-77
2022/10/13 13:23:22;;;;;;;5.72;3.03;;;21.90;67.10;;;;;;2348775;53;20979;-78
2022/10/13 13:27:41;;;;;;;6.45;3.30;;;21.90;67.00;;;;;;2343246;53;20928;-77
2022/10/13 13:30:15;;;;;;;5.47;2.97;;;22.00;66.10;;;;;;2359172;53;20992;-77
2022/10/13 13:32:41;;;;;;;7.37;3.30;;;22.00;66.50;;;;;;2343975;53;21449;-77
2022/10/13 13:35:08;;;;;;;9.50;3.28;;;22.00;66.80;;;;;;2343988;53;21456;-78
2022/10/13 13:37:48;;;;;;;6.90;3.28;;;22.00;66.70;;;;;;2406442;53;20981;-77
2022/10/13 13:40:27;;;;;;;5.57;3.12;;;22.00;66.00;;;;;;2344339;53;21016;-78
2022/10/13 13:42:54;;;;;;;6.43;3.25;;;22.00;66.40;;;;;;2450900;53;21836;-77
2022/10/13 13:45:21;;;;;;;7.82;3.28;;;22.10;66.50;;;;;;2344059;54;20984;-77
2022/10/13 13:47:47;;;;;;;6.82;2.87;;;22.10;66.20;;;;;;2476806;53;20943;-77